sensor_id;sensor_type;location;lat;lon;timestamp;P1;durP1;ratioP1;P2;durP2;ratioP2
13943;SDS011;7044;53.286;8.534;2022-11-15T00:00:54;18.97;;;11.20;;
13943;SDS011;7044;53.286;8.534;2022-11-15T00:03:22;15.93;;;11.07;;
13943;SDS011;7044;53.286;8.534;2022-11-15T00:05:50;17.20;;;11.93;;
13943;SDS011;7044;53.286;8.534;2022-11-15T00:08:17;15.63;;;10.97;;
13943;SDS011;7044;53.286;8.534;2022-11-15T00:10:53;15.97;;;11.03;;
13943;SDS011;7044;53.286;8.534;2022-11-15T00:13:20;16.90;;;10.77;;
13943;SDS011;7044;53.286;8.534;2022-11-15T00:15:48;17.17;;;10.97;;
13943;SDS011;7044;53.286;8.534;2022-11-15T00:18:15;17.23;;;11.33;;
13943;SDS011;7044;53.286;8.534;2022-11-15T00:20:43;19.50;;;11.07;;
13943;SDS011;7044;53.286;8.534;2022-11-15T00:23:10;16.70;;;10.60;;
13943;SDS011;7044;53.286;8.534;2022-11-15T00:25:37;19.67;;;10.77;;
13943;SDS011;7044;53.286;8.534;2022-11-15T00:28:04;17.80;;;10.93;;
13943;SDS011;7044;53.286;8.534;2022-11-15T00:30:31;16.57;;;10.87;;
13943;SDS011;7044;53.286;8.534;2022-11-15T00:33:02;17.73;;;11.17;;
13943;SDS011;7044;53.286;8.534;2022-11-15T00:35:31;22.03;;;11.40;;
13943;SDS011;7044;53.286;8.534;2022-11-15T00:37:58;17.33;;;10.90;;
13943;SDS011;7044;53.286;8.534;2022-11-15T00:40:25;23.80;;;12.10;;
13943;SDS011;7044;53.286;8.534;2022-11-15T00:42:52;16.80;;;10.83;;
13943;SDS011;7044;53.286;8.534;2022-11-15T00:45:19;19.73;;;11.20;;
13943;SDS011;7044;53.286;8.534;2022-11-15T00:47:45;18.43;;;11.63;;
13943;SDS011;7044;53.286;8.534;2022-11-15T00:50:14;16.87;;;11.00;;
13943;SDS011;7044;53.286;8.534;2022-11-15T00:52:41;18.23;;;10.30;;
13943;SDS011;7044;53.286;8.534;2022-11-15T00:55:08;14.40;;;10.27;;
13943;SDS011;7044;53.286;8.534;2022-11-15T00:57:39;24.57;;;11.47;;
13943;SDS011;7044;53.286;8.534;2022-11-15T01:00:06;16.47;;;10.50;;
13943;SDS011;7044;53.286;8.534;2022-11-15T01:02:34;18.90;;;11.20;;
13943;SDS011;7044;53.286;8.534;2022-11-15T01:05:01;18.93;;;10.60;;
13943;SDS011;7044;53.286;8.534;2022-11-15T01:07:29;16.93;;;10.67;;
13943;SDS011;7044;53.286;8.534;2022-11-15T01:09:56;15.40;;;10.23;;
13943;SDS011;7044;53.286;8.534;2022-11-15T01:12:23;18.50;;;10.73;;
13943;SDS011;7044;53.286;8.534;2022-11-15T01:14:50;14.47;;;9.87;;
13943;SDS011;7044;53.286;8.534;2022-11-15T01:17:17;14.97;;;10.27;;
13943;SDS011;7044;53.286;8.534;2022-11-15T01:19:43;13.87;;;9.40;;
13943;SDS011;7044;53.286;8.534;2022-11-15T01:22:10;16.80;;;10.23;;
13943;SDS011;7044;53.286;8.534;2022-11-15T01:24:39;13.77;;;9.57;;
13943;SDS011;7044;53.286;8.534;2022-11-15T01:27:05;18.23;;;10.93;;
13943;SDS011;7044;53.286;8.534;2022-11-15T01:29:32;16.30;;;10.27;;
13943;SDS011;7044;53.286;8.534;2022-11-15T01:31:59;17.43;;;10.40;;
13943;SDS011;7044;53.286;8.534;2022-11-15T01:34:26;16.00;;;9.80;;
13943;SDS011;7044;53.286;8.534;2022-11-15T01:36:53;15.83;;;10.37;;
13943;SDS011;7044;53.286;8.534;2022-11-15T01:39:20;13.50;;;10.27;;
13943;SDS011;7044;53.286;8.534;2022-11-15T01:41:48;17.50;;;10.57;;
13943;SDS011;7044;53.286;8.534;2022-11-15T01:47:09;14.10;;;9.20;;
13943;SDS011;7044;53.286;8.534;2022-11-15T01:49:41;15.47;;;9.83;;
13943;SDS011;7044;53.286;8.534;2022-11-15T01:52:17;13.03;;;9.17;;
13943;SDS011;7044;53.286;8.534;2022-11-15T01:54:46;15.50;;;9.10;;
13943;SDS011;7044;53.286;8.534;2022-11-15T01:57:16;13.97;;;9.47;;
13943;SDS011;7044;53.286;8.534;2022-11-15T01:59:43;12.60;;;8.53;;
13943;SDS011;7044;53.286;8.534;2022-11-15T02:02:11;18.30;;;9.33;;
13943;SDS011;7044;53.286;8.534;2022-11-15T02:04:40;14.93;;;8.87;;
13943;SDS011;7044;53.286;8.534;2022-11-15T02:07:08;14.10;;;8.87;;
13943;SDS011;7044;53.286;8.534;2022-11-15T02:09:37;15.53;;;9.13;;
13943;SDS011;7044;53.286;8.534;2022-11-15T02:12:05;15.80;;;8.47;;
13943;SDS011;7044;53.286;8.534;2022-11-15T02:14:35;12.80;;;8.20;;
13943;SDS011;7044;53.286;8.534;2022-11-15T02:17:09;16.33;;;9.10;;
13943;SDS011;7044;53.286;8.534;2022-11-15T02:20:03;14.97;;;9.00;;
13943;SDS011;7044;53.286;8.534;2022-11-15T02:22:49;13.33;;;9.30;;
13943;SDS011;7044;53.286;8.534;2022-11-15T02:25:33;13.40;;;9.47;;
13943;SDS011;7044;53.286;8.534;2022-11-15T02:28:28;14.83;;;9.53;;
13943;SDS011;7044;53.286;8.534;2022-11-15T02:31:13;14.87;;;8.97;;
13943;SDS011;7044;53.286;8.534;2022-11-15T02:33:49;13.30;;;8.87;;
13943;SDS011;7044;53.286;8.534;2022-11-15T02:36:21;13.53;;;9.10;;
13943;SDS011;7044;53.286;8.534;2022-11-15T02:38:58;14.77;;;8.70;;
13943;SDS011;7044;53.286;8.534;2022-11-15T02:41:30;14.20;;;9.00;;
13943;SDS011;7044;53.286;8.534;2022-11-15T02:44:07;12.97;;;8.77;;
13943;SDS011;7044;53.286;8.534;2022-11-15T02:46:40;12.70;;;9.13;;
13943;SDS011;7044;53.286;8.534;2022-11-15T02:49:31;16.63;;;9.63;;
13943;SDS011;7044;53.286;8.534;2022-11-15T02:51:59;14.30;;;9.17;;
13943;SDS011;7044;53.286;8.534;2022-11-15T02:54:28;15.13;;;9.10;;
13943;SDS011;7044;53.286;8.534;2022-11-15T02:56:58;13.63;;;9.67;;
13943;SDS011;7044;53.286;8.534;2022-11-15T02:59:35;14.97;;;9.90;;
13943;SDS011;7044;53.286;8.534;2022-11-15T03:02:16;15.43;;;9.83;;
13943;SDS011;7044;53.286;8.534;2022-11-15T03:04:52;16.37;;;10.23;;
13943;SDS011;7044;53.286;8.534;2022-11-15T03:07:23;13.93;;;9.77;;
13943;SDS011;7044;53.286;8.534;2022-11-15T03:09:57;17.33;;;9.63;;
13943;SDS011;7044;53.286;8.534;2022-11-15T03:12:33;13.57;;;9.07;;
13943;SDS011;7044;53.286;8.534;2022-11-15T03:15:05;13.53;;;9.30;;
13943;SDS011;7044;53.286;8.534;2022-11-15T03:17:37;15.43;;;9.80;;
13943;SDS011;7044;53.286;8.534;2022-11-15T03:20:08;18.13;;;10.40;;
13943;SDS011;7044;53.286;8.534;2022-11-15T03:22:40;12.70;;;9.37;;
13943;SDS011;7044;53.286;8.534;2022-11-15T03:25:09;14.57;;;10.07;;
13943;SDS011;7044;53.286;8.534;2022-11-15T03:27:42;13.70;;;9.70;;
13943;SDS011;7044;53.286;8.534;2022-11-15T03:30:12;20.17;;;10.10;;
13943;SDS011;7044;53.286;8.534;2022-11-15T03:32:44;19.10;;;10.17;;
13943;SDS011;7044;53.286;8.534;2022-11-15T03:35:14;16.43;;;9.90;;
13943;SDS011;7044;53.286;8.534;2022-11-15T03:37:47;16.53;;;9.43;;
13943;SDS011;7044;53.286;8.534;2022-11-15T03:40:20;15.70;;;9.87;;
13943;SDS011;7044;53.286;8.534;2022-11-15T03:42:54;14.47;;;9.67;;
13943;SDS011;7044;53.286;8.534;2022-11-15T03:45:29;17.80;;;9.67;;
13943;SDS011;7044;53.286;8.534;2022-11-15T03:48:03;17.57;;;10.37;;
13943;SDS011;7044;53.286;8.534;2022-11-15T03:50:36;15.67;;;9.60;;
13943;SDS011;7044;53.286;8.534;2022-11-15T03:53:03;18.00;;;9.70;;
13943;SDS011;7044;53.286;8.534;2022-11-15T03:55:31;12.70;;;8.97;;
13943;SDS011;7044;53.286;8.534;2022-11-15T03:57:59;15.73;;;10.00;;
13943;SDS011;7044;53.286;8.534;2022-11-15T04:00:26;21.17;;;10.88;;
13943;SDS011;7044;53.286;8.534;2022-11-15T04:02:54;17.48;;;9.93;;
13943;SDS011;7044;53.286;8.534;2022-11-15T04:05:22;17.43;;;10.47;;
13943;SDS011;7044;53.286;8.534;2022-11-15T04:07:49;16.93;;;10.63;;
13943;SDS011;7044;53.286;8.534;2022-11-15T04:10:16;17.73;;;10.17;;
13943;SDS011;7044;53.286;8.534;2022-11-15T04:12:43;17.37;;;9.90;;
13943;SDS011;7044;53.286;8.534;2022-11-15T04:15:13;22.03;;;11.60;;
13943;SDS011;7044;53.286;8.534;2022-11-15T04:17:44;21.27;;;10.77;;
13943;SDS011;7044;53.286;8.534;2022-11-15T04:20:13;18.00;;;10.43;;
13943;SDS011;7044;53.286;8.534;2022-11-15T04:23:00;24.15;;;10.65;;
13943;SDS011;7044;53.286;8.534;2022-11-15T04:25:46;29.03;;;11.43;;
13943;SDS011;7044;53.286;8.534;2022-11-15T04:28:15;23.87;;;12.17;;
13943;SDS011;7044;53.286;8.534;2022-11-15T04:30:42;19.07;;;10.60;;
13943;SDS011;7044;53.286;8.534;2022-11-15T04:33:09;19.25;;;10.18;;
13943;SDS011;7044;53.286;8.534;2022-11-15T04:35:36;21.90;;;10.85;;
13943;SDS011;7044;53.286;8.534;2022-11-15T04:38:05;22.50;;;10.90;;
13943;SDS011;7044;53.286;8.534;2022-11-15T04:40:32;25.10;;;11.83;;
13943;SDS011;7044;53.286;8.534;2022-11-15T04:42:59;23.30;;;10.53;;
13943;SDS011;7044;53.286;8.534;2022-11-15T04:45:26;25.63;;;11.67;;
13943;SDS011;7044;53.286;8.534;2022-11-15T04:47:53;27.50;;;11.27;;
13943;SDS011;7044;53.286;8.534;2022-11-15T04:50:19;16.80;;;10.73;;
13943;SDS011;7044;53.286;8.534;2022-11-15T04:52:50;25.00;;;12.90;;
13943;SDS011;7044;53.286;8.534;2022-11-15T04:55:19;21.80;;;11.30;;
13943;SDS011;7044;53.286;8.534;2022-11-15T04:57:46;20.38;;;12.10;;
13943;SDS011;7044;53.286;8.534;2022-11-15T05:00:13;19.37;;;10.67;;
13943;SDS011;7044;53.286;8.534;2022-11-15T05:02:42;20.83;;;10.70;;
13943;SDS011;7044;53.286;8.534;2022-11-15T05:05:27;19.05;;;10.63;;
13943;SDS011;7044;53.286;8.534;2022-11-15T05:07:54;20.73;;;10.68;;
13943;SDS011;7044;53.286;8.534;2022-11-15T05:10:22;25.02;;;11.27;;
13943;SDS011;7044;53.286;8.534;2022-11-15T05:12:49;21.80;;;10.23;;
13943;SDS011;7044;53.286;8.534;2022-11-15T05:15:16;16.90;;;10.57;;
13943;SDS011;7044;53.286;8.534;2022-11-15T05:17:43;18.33;;;10.18;;
13943;SDS011;7044;53.286;8.534;2022-11-15T05:20:10;19.55;;;11.15;;
13943;SDS011;7044;53.286;8.534;2022-11-15T05:22:37;17.97;;;9.70;;
13943;SDS011;7044;53.286;8.534;2022-11-15T05:25:05;15.67;;;9.73;;
13943;SDS011;7044;53.286;8.534;2022-11-15T05:27:34;15.18;;;10.45;;
13943;SDS011;7044;53.286;8.534;2022-11-15T05:30:01;23.42;;;9.85;;
13943;SDS011;7044;53.286;8.534;2022-11-15T05:32:28;16.73;;;8.63;;
13943;SDS011;7044;53.286;8.534;2022-11-15T05:34:55;17.00;;;9.23;;
13943;SDS011;7044;53.286;8.534;2022-11-15T05:37:22;14.68;;;9.82;;
13943;SDS011;7044;53.286;8.534;2022-11-15T05:39:49;21.35;;;9.80;;
13943;SDS011;7044;53.286;8.534;2022-11-15T05:42:15;20.50;;;10.23;;
13943;SDS011;7044;53.286;8.534;2022-11-15T05:44:44;19.50;;;9.77;;
13943;SDS011;7044;53.286;8.534;2022-11-15T05:47:14;15.20;;;9.02;;
13943;SDS011;7044;53.286;8.534;2022-11-15T05:49:44;13.60;;;8.87;;
13943;SDS011;7044;53.286;8.534;2022-11-15T05:52:16;15.85;;;9.23;;
13943;SDS011;7044;53.286;8.534;2022-11-15T05:54:45;14.10;;;9.20;;
13943;SDS011;7044;53.286;8.534;2022-11-15T05:57:12;15.05;;;9.52;;
13943;SDS011;7044;53.286;8.534;2022-11-15T05:59:39;16.38;;;9.68;;
13943;SDS011;7044;53.286;8.534;2022-11-15T06:02:09;18.85;;;9.38;;
13943;SDS011;7044;53.286;8.534;2022-11-15T06:04:37;12.43;;;8.07;;
13943;SDS011;7044;53.286;8.534;2022-11-15T06:07:03;14.52;;;9.50;;
13943;SDS011;7044;53.286;8.534;2022-11-15T06:09:30;15.80;;;9.30;;
13943;SDS011;7044;53.286;8.534;2022-11-15T06:11:57;14.35;;;8.45;;
13943;SDS011;7044;53.286;8.534;2022-11-15T06:14:24;13.93;;;9.07;;
13943;SDS011;7044;53.286;8.534;2022-11-15T06:16:50;14.50;;;9.15;;
13943;SDS011;7044;53.286;8.534;2022-11-15T06:19:19;13.95;;;9.82;;
13943;SDS011;7044;53.286;8.534;2022-11-15T06:21:45;12.45;;;9.10;;
13943;SDS011;7044;53.286;8.534;2022-11-15T06:24:12;14.57;;;9.50;;
13943;SDS011;7044;53.286;8.534;2022-11-15T06:26:39;12.88;;;8.63;;
13943;SDS011;7044;53.286;8.534;2022-11-15T06:29:06;15.02;;;8.93;;
13943;SDS011;7044;53.286;8.534;2022-11-15T06:31:33;12.77;;;9.25;;
13943;SDS011;7044;53.286;8.534;2022-11-15T06:34:00;12.68;;;8.35;;
13943;SDS011;7044;53.286;8.534;2022-11-15T06:36:29;16.35;;;8.27;;
13943;SDS011;7044;53.286;8.534;2022-11-15T06:38:56;10.90;;;8.07;;
13943;SDS011;7044;53.286;8.534;2022-11-15T06:41:23;16.50;;;9.40;;
13943;SDS011;7044;53.286;8.534;2022-11-15T06:43:49;13.52;;;8.50;;
13943;SDS011;7044;53.286;8.534;2022-11-15T06:46:16;13.20;;;8.65;;
13943;SDS011;7044;53.286;8.534;2022-11-15T06:48:43;12.05;;;7.38;;
13943;SDS011;7044;53.286;8.534;2022-11-15T06:51:10;14.52;;;7.32;;
13943;SDS011;7044;53.286;8.534;2022-11-15T06:53:38;11.13;;;7.78;;
13943;SDS011;7044;53.286;8.534;2022-11-15T06:56:05;13.23;;;6.85;;
13943;SDS011;7044;53.286;8.534;2022-11-15T06:58:34;10.52;;;7.60;;
13943;SDS011;7044;53.286;8.534;2022-11-15T07:01:01;13.30;;;7.18;;
13943;SDS011;7044;53.286;8.534;2022-11-15T07:03:29;10.75;;;7.32;;
13943;SDS011;7044;53.286;8.534;2022-11-15T07:05:56;9.20;;;6.85;;
13943;SDS011;7044;53.286;8.534;2022-11-15T07:08:24;11.30;;;6.80;;
13943;SDS011;7044;53.286;8.534;2022-11-15T07:10:55;13.20;;;7.47;;
13943;SDS011;7044;53.286;8.534;2022-11-15T07:13:24;11.10;;;7.07;;
13943;SDS011;7044;53.286;8.534;2022-11-15T07:15:52;9.43;;;6.60;;
13943;SDS011;7044;53.286;8.534;2022-11-15T07:18:18;10.15;;;7.65;;
13943;SDS011;7044;53.286;8.534;2022-11-15T07:20:45;12.10;;;7.50;;
13943;SDS011;7044;53.286;8.534;2022-11-15T07:23:12;12.30;;;6.63;;
13943;SDS011;7044;53.286;8.534;2022-11-15T07:25:39;9.57;;;6.80;;
13943;SDS011;7044;53.286;8.534;2022-11-15T07:28:07;10.95;;;6.75;;
13943;SDS011;7044;53.286;8.534;2022-11-15T07:30:34;9.23;;;6.68;;
13943;SDS011;7044;53.286;8.534;2022-11-15T07:33:00;11.60;;;6.82;;
13943;SDS011;7044;53.286;8.534;2022-11-15T07:35:27;10.90;;;7.18;;
13943;SDS011;7044;53.286;8.534;2022-11-15T07:37:56;10.35;;;7.90;;
13943;SDS011;7044;53.286;8.534;2022-11-15T07:40:24;10.77;;;7.28;;
13943;SDS011;7044;53.286;8.534;2022-11-15T07:42:51;10.50;;;6.68;;
13943;SDS011;7044;53.286;8.534;2022-11-15T07:45:20;9.48;;;6.97;;
13943;SDS011;7044;53.286;8.534;2022-11-15T07:47:47;15.02;;;7.65;;
13943;SDS011;7044;53.286;8.534;2022-11-15T07:50:15;15.27;;;7.50;;
13943;SDS011;7044;53.286;8.534;2022-11-15T07:52:42;10.45;;;7.40;;
13943;SDS011;7044;53.286;8.534;2022-11-15T07:55:09;11.32;;;7.55;;
13943;SDS011;7044;53.286;8.534;2022-11-15T07:57:36;14.70;;;7.13;;
13943;SDS011;7044;53.286;8.534;2022-11-15T08:00:03;10.80;;;7.72;;
13943;SDS011;7044;53.286;8.534;2022-11-15T08:02:32;11.57;;;7.47;;
13943;SDS011;7044;53.286;8.534;2022-11-15T08:04:59;14.40;;;7.65;;
13943;SDS011;7044;53.286;8.534;2022-11-15T08:07:28;13.25;;;7.72;;
13943;SDS011;7044;53.286;8.534;2022-11-15T08:09:56;13.27;;;7.40;;
13943;SDS011;7044;53.286;8.534;2022-11-15T08:12:23;8.60;;;7.50;;
13943;SDS011;7044;53.286;8.534;2022-11-15T08:14:50;15.27;;;8.15;;
13943;SDS011;7044;53.286;8.534;2022-11-15T08:17:17;18.55;;;9.18;;
13943;SDS011;7044;53.286;8.534;2022-11-15T08:19:45;12.50;;;7.95;;
13943;SDS011;7044;53.286;8.534;2022-11-15T08:22:12;15.30;;;8.23;;
13943;SDS011;7044;53.286;8.534;2022-11-15T08:24:39;15.98;;;8.82;;
13943;SDS011;7044;53.286;8.534;2022-11-15T08:27:06;14.50;;;8.43;;
13943;SDS011;7044;53.286;8.534;2022-11-15T08:29:39;13.10;;;7.55;;
13943;SDS011;7044;53.286;8.534;2022-11-15T08:32:06;11.13;;;8.00;;
13943;SDS011;7044;53.286;8.534;2022-11-15T08:34:34;11.65;;;7.80;;
13943;SDS011;7044;53.286;8.534;2022-11-15T08:37:02;13.10;;;8.88;;
13943;SDS011;7044;53.286;8.534;2022-11-15T08:39:29;12.00;;;7.35;;
13943;SDS011;7044;53.286;8.534;2022-11-15T08:41:55;11.27;;;8.07;;
13943;SDS011;7044;53.286;8.534;2022-11-15T08:44:22;13.07;;;8.80;;
13943;SDS011;7044;53.286;8.534;2022-11-15T08:46:50;14.75;;;8.32;;
13943;SDS011;7044;53.286;8.534;2022-11-15T08:49:16;16.27;;;9.00;;
13943;SDS011;7044;53.286;8.534;2022-11-15T08:51:43;13.93;;;7.75;;
13943;SDS011;7044;53.286;8.534;2022-11-15T08:54:11;12.05;;;8.20;;
13943;SDS011;7044;53.286;8.534;2022-11-15T08:56:38;11.95;;;7.57;;
13943;SDS011;7044;53.286;8.534;2022-11-15T08:59:05;15.38;;;8.18;;
13943;SDS011;7044;53.286;8.534;2022-11-15T09:01:32;11.27;;;8.02;;
13943;SDS011;7044;53.286;8.534;2022-11-15T09:03:59;11.02;;;8.23;;
13943;SDS011;7044;53.286;8.534;2022-11-15T09:06:25;9.98;;;7.15;;
13943;SDS011;7044;53.286;8.534;2022-11-15T09:08:52;13.70;;;8.60;;
13943;SDS011;7044;53.286;8.534;2022-11-15T09:11:20;12.23;;;7.68;;
13943;SDS011;7044;53.286;8.534;2022-11-15T09:13:48;12.77;;;7.97;;
13943;SDS011;7044;53.286;8.534;2022-11-15T09:16:15;13.68;;;8.13;;
13943;SDS011;7044;53.286;8.534;2022-11-15T09:18:42;11.60;;;8.43;;
13943;SDS011;7044;53.286;8.534;2022-11-15T09:21:09;13.70;;;8.05;;
13943;SDS011;7044;53.286;8.534;2022-11-15T09:23:35;12.73;;;8.27;;
13943;SDS011;7044;53.286;8.534;2022-11-15T09:26:03;15.00;;;7.38;;
13943;SDS011;7044;53.286;8.534;2022-11-15T09:28:32;17.52;;;8.15;;
13943;SDS011;7044;53.286;8.534;2022-11-15T09:30:59;10.10;;;7.43;;
13943;SDS011;7044;53.286;8.534;2022-11-15T09:33:28;12.88;;;7.88;;
13943;SDS011;7044;53.286;8.534;2022-11-15T09:35:59;9.38;;;6.88;;
13943;SDS011;7044;53.286;8.534;2022-11-15T09:38:26;11.05;;;7.40;;
13943;SDS011;7044;53.286;8.534;2022-11-15T09:40:56;9.77;;;7.13;;
13943;SDS011;7044;53.286;8.534;2022-11-15T09:43:53;9.98;;;7.53;;
13943;SDS011;7044;53.286;8.534;2022-11-15T09:46:33;11.70;;;7.38;;
13943;SDS011;7044;53.286;8.534;2022-11-15T09:49:07;11.20;;;7.35;;
13943;SDS011;7044;53.286;8.534;2022-11-15T09:51:37;10.45;;;6.82;;
13943;SDS011;7044;53.286;8.534;2022-11-15T09:54:13;12.55;;;7.05;;
13943;SDS011;7044;53.286;8.534;2022-11-15T09:56:48;9.02;;;6.32;;
13943;SDS011;7044;53.286;8.534;2022-11-15T09:59:27;8.93;;;7.25;;
13943;SDS011;7044;53.286;8.534;2022-11-15T10:02:13;9.85;;;7.03;;
13943;SDS011;7044;53.286;8.534;2022-11-15T10:04:48;11.77;;;6.93;;
13943;SDS011;7044;53.286;8.534;2022-11-15T10:07:19;9.82;;;7.20;;
13943;SDS011;7044;53.286;8.534;2022-11-15T10:09:52;10.05;;;7.00;;
13943;SDS011;7044;53.286;8.534;2022-11-15T10:12:22;12.15;;;7.22;;
13943;SDS011;7044;53.286;8.534;2022-11-15T10:14:54;16.48;;;6.93;;
13943;SDS011;7044;53.286;8.534;2022-11-15T10:17:29;10.70;;;6.63;;
13943;SDS011;7044;53.286;8.534;2022-11-15T10:20:16;9.05;;;6.75;;
13943;SDS011;7044;53.286;8.534;2022-11-15T10:22:47;9.98;;;6.20;;
13943;SDS011;7044;53.286;8.534;2022-11-15T10:25:17;9.57;;;6.32;;
13943;SDS011;7044;53.286;8.534;2022-11-15T10:27:53;10.65;;;6.90;;
13943;SDS011;7044;53.286;8.534;2022-11-15T10:30:24;8.52;;;6.47;;
13943;SDS011;7044;53.286;8.534;2022-11-15T10:32:57;9.02;;;6.65;;
13943;SDS011;7044;53.286;8.534;2022-11-15T10:35:26;9.45;;;6.85;;
13943;SDS011;7044;53.286;8.534;2022-11-15T10:38:04;8.32;;;6.43;;
13943;SDS011;7044;53.286;8.534;2022-11-15T10:40:32;10.68;;;6.47;;
13943;SDS011;7044;53.286;8.534;2022-11-15T10:43:10;7.82;;;6.15;;
13943;SDS011;7044;53.286;8.534;2022-11-15T10:45:42;8.95;;;5.75;;
13943;SDS011;7044;53.286;8.534;2022-11-15T10:48:23;9.77;;;6.28;;
13943;SDS011;7044;53.286;8.534;2022-11-15T10:50:51;7.32;;;6.15;;
13943;SDS011;7044;53.286;8.534;2022-11-15T10:53:21;9.55;;;5.95;;
13943;SDS011;7044;53.286;8.534;2022-11-15T10:55:52;8.13;;;5.68;;
13943;SDS011;7044;53.286;8.534;2022-11-15T10:58:25;7.97;;;5.93;;
13943;SDS011;7044;53.286;8.534;2022-11-15T11:01:12;6.45;;;5.85;;
13943;SDS011;7044;53.286;8.534;2022-11-15T11:03:43;9.50;;;5.40;;
13943;SDS011;7044;53.286;8.534;2022-11-15T11:06:12;7.47;;;5.78;;
13943;SDS011;7044;53.286;8.534;2022-11-15T11:08:40;7.47;;;6.00;;
13943;SDS011;7044;53.286;8.534;2022-11-15T11:11:20;7.90;;;5.45;;
13943;SDS011;7044;53.286;8.534;2022-11-15T11:13:47;7.68;;;6.00;;
13943;SDS011;7044;53.286;8.534;2022-11-15T11:16:21;8.15;;;5.35;;
13943;SDS011;7044;53.286;8.534;2022-11-15T11:18:59;6.40;;;5.28;;
13943;SDS011;7044;53.286;8.534;2022-11-15T11:21:37;8.05;;;5.80;;
13943;SDS011;7044;53.286;8.534;2022-11-15T11:24:12;10.10;;;5.40;;
13943;SDS011;7044;53.286;8.534;2022-11-15T11:26:46;5.90;;;4.75;;
13943;SDS011;7044;53.286;8.534;2022-11-15T11:29:26;7.43;;;5.38;;
13943;SDS011;7044;53.286;8.534;2022-11-15T11:32:03;8.50;;;5.03;;
13943;SDS011;7044;53.286;8.534;2022-11-15T11:34:44;6.68;;;4.88;;
13943;SDS011;7044;53.286;8.534;2022-11-15T11:37:24;8.85;;;5.15;;
13943;SDS011;7044;53.286;8.534;2022-11-15T11:40:06;7.60;;;5.22;;
13943;SDS011;7044;53.286;8.534;2022-11-15T11:42:43;5.35;;;4.65;;
13943;SDS011;7044;53.286;8.534;2022-11-15T11:45:15;7.63;;;5.00;;
13943;SDS011;7044;53.286;8.534;2022-11-15T11:47:54;7.53;;;4.90;;
13943;SDS011;7044;53.286;8.534;2022-11-15T11:50:34;6.28;;;4.70;;
13943;SDS011;7044;53.286;8.534;2022-11-15T11:53:05;6.53;;;4.88;;
13943;SDS011;7044;53.286;8.534;2022-11-15T11:55:38;5.78;;;4.90;;
13943;SDS011;7044;53.286;8.534;2022-11-15T11:58:11;7.47;;;4.68;;
13943;SDS011;7044;53.286;8.534;2022-11-15T12:00:43;5.90;;;4.43;;
13943;SDS011;7044;53.286;8.534;2022-11-15T12:03:18;7.60;;;4.55;;
13943;SDS011;7044;53.286;8.534;2022-11-15T12:05:51;5.82;;;4.60;;
13943;SDS011;7044;53.286;8.534;2022-11-15T12:08:23;5.65;;;4.35;;
13943;SDS011;7044;53.286;8.534;2022-11-15T12:10:59;6.40;;;4.72;;
13943;SDS011;7044;53.286;8.534;2022-11-15T12:13:32;5.57;;;4.25;;
13943;SDS011;7044;53.286;8.534;2022-11-15T12:16:02;4.53;;;4.10;;
13943;SDS011;7044;53.286;8.534;2022-11-15T12:18:35;8.90;;;4.32;;
13943;SDS011;7044;53.286;8.534;2022-11-15T12:21:02;6.30;;;3.88;;
13943;SDS011;7044;53.286;8.534;2022-11-15T12:23:37;7.82;;;4.22;;
13943;SDS011;7044;53.286;8.534;2022-11-15T12:26:08;4.25;;;3.85;;
13943;SDS011;7044;53.286;8.534;2022-11-15T12:28:42;5.20;;;4.05;;
13943;SDS011;7044;53.286;8.534;2022-11-15T12:31:14;4.72;;;4.10;;
13943;SDS011;7044;53.286;8.534;2022-11-15T12:33:45;7.43;;;3.70;;
13943;SDS011;7044;53.286;8.534;2022-11-15T12:36:30;5.80;;;4.13;;
13943;SDS011;7044;53.286;8.534;2022-11-15T12:39:00;5.22;;;3.38;;
13943;SDS011;7044;53.286;8.534;2022-11-15T12:41:29;5.35;;;4.00;;
13943;SDS011;7044;53.286;8.534;2022-11-15T12:43:57;7.25;;;3.70;;
13943;SDS011;7044;53.286;8.534;2022-11-15T12:49:47;5.28;;;3.42;;
13943;SDS011;7044;53.286;8.534;2022-11-15T12:52:14;4.63;;;3.85;;
13943;SDS011;7044;53.286;8.534;2022-11-15T12:54:50;7.18;;;4.22;;
13943;SDS011;7044;53.286;8.534;2022-11-15T12:57:25;5.50;;;3.60;;
13943;SDS011;7044;53.286;8.534;2022-11-15T12:59:59;3.78;;;3.25;;
13943;SDS011;7044;53.286;8.534;2022-11-15T13:02:29;3.72;;;3.20;;
13943;SDS011;7044;53.286;8.534;2022-11-15T13:08:01;5.15;;;3.13;;
13943;SDS011;7044;53.286;8.534;2022-11-15T13:10:29;4.85;;;3.00;;
13943;SDS011;7044;53.286;8.534;2022-11-15T13:12:57;3.85;;;3.00;;
13943;SDS011;7044;53.286;8.534;2022-11-15T13:15:39;5.95;;;3.70;;
13943;SDS011;7044;53.286;8.534;2022-11-15T13:18:26;4.85;;;3.47;;
13943;SDS011;7044;53.286;8.534;2022-11-15T13:21:18;5.38;;;3.50;;
13943;SDS011;7044;53.286;8.534;2022-11-15T13:24:09;7.68;;;3.53;;
13943;SDS011;7044;53.286;8.534;2022-11-15T13:26:38;4.78;;;3.38;;
13943;SDS011;7044;53.286;8.534;2022-11-15T13:29:12;3.83;;;3.35;;
13943;SDS011;7044;53.286;8.534;2022-11-15T13:31:42;4.45;;;4.00;;
13943;SDS011;7044;53.286;8.534;2022-11-15T13:34:20;6.72;;;3.20;;
13943;SDS011;7044;53.286;8.534;2022-11-15T13:36:51;3.70;;;3.40;;
13943;SDS011;7044;53.286;8.534;2022-11-15T13:39:25;4.43;;;2.83;;
13943;SDS011;7044;53.286;8.534;2022-11-15T13:41:53;3.95;;;2.75;;
13943;SDS011;7044;53.286;8.534;2022-11-15T13:44:20;4.88;;;3.17;;
13943;SDS011;7044;53.286;8.534;2022-11-15T13:46:49;4.55;;;3.45;;
13943;SDS011;7044;53.286;8.534;2022-11-15T13:49:28;6.80;;;4.32;;
13943;SDS011;7044;53.286;8.534;2022-11-15T13:51:56;4.93;;;3.88;;
13943;SDS011;7044;53.286;8.534;2022-11-15T13:54:25;3.95;;;2.97;;
13943;SDS011;7044;53.286;8.534;2022-11-15T13:56:56;3.58;;;2.70;;
13943;SDS011;7044;53.286;8.534;2022-11-15T13:59:27;4.50;;;2.30;;
13943;SDS011;7044;53.286;8.534;2022-11-15T14:01:57;5.13;;;2.92;;
13943;SDS011;7044;53.286;8.534;2022-11-15T14:04:27;3.70;;;2.40;;
13943;SDS011;7044;53.286;8.534;2022-11-15T14:06:59;2.50;;;2.28;;
13943;SDS011;7044;53.286;8.534;2022-11-15T14:09:33;7.03;;;2.47;;
13943;SDS011;7044;53.286;8.534;2022-11-15T14:12:19;3.67;;;2.58;;
13943;SDS011;7044;53.286;8.534;2022-11-15T14:14:52;3.22;;;2.50;;
13943;SDS011;7044;53.286;8.534;2022-11-15T14:17:20;6.32;;;3.65;;
13943;SDS011;7044;53.286;8.534;2022-11-15T14:19:59;6.70;;;3.97;;
13943;SDS011;7044;53.286;8.534;2022-11-15T14:22:26;5.75;;;4.05;;
13943;SDS011;7044;53.286;8.534;2022-11-15T14:25:05;13.68;;;5.55;;
13943;SDS011;7044;53.286;8.534;2022-11-15T14:27:40;15.85;;;6.88;;
13943;SDS011;7044;53.286;8.534;2022-11-15T14:30:12;9.25;;;5.13;;
13943;SDS011;7044;53.286;8.534;2022-11-15T14:32:42;9.70;;;5.10;;
13943;SDS011;7044;53.286;8.534;2022-11-15T14:35:12;11.00;;;5.75;;
13943;SDS011;7044;53.286;8.534;2022-11-15T14:37:41;8.25;;;4.70;;
13943;SDS011;7044;53.286;8.534;2022-11-15T14:40:11;7.82;;;3.95;;
13943;SDS011;7044;53.286;8.534;2022-11-15T14:42:40;5.65;;;2.80;;
13943;SDS011;7044;53.286;8.534;2022-11-15T14:45:09;4.53;;;2.53;;
13943;SDS011;7044;53.286;8.534;2022-11-15T14:47:39;2.53;;;1.85;;
13943;SDS011;7044;53.286;8.534;2022-11-15T14:50:06;2.55;;;2.03;;
13943;SDS011;7044;53.286;8.534;2022-11-15T14:52:36;2.17;;;1.65;;
13943;SDS011;7044;53.286;8.534;2022-11-15T14:55:08;2.53;;;1.88;;
13943;SDS011;7044;53.286;8.534;2022-11-15T14:57:42;2.00;;;1.70;;
13943;SDS011;7044;53.286;8.534;2022-11-15T15:00:10;4.13;;;2.10;;
13943;SDS011;7044;53.286;8.534;2022-11-15T15:02:37;5.15;;;1.90;;
13943;SDS011;7044;53.286;8.534;2022-11-15T15:05:10;2.40;;;1.65;;
13943;SDS011;7044;53.286;8.534;2022-11-15T15:07:40;11.90;;;2.00;;
13943;SDS011;7044;53.286;8.534;2022-11-15T15:10:07;2.42;;;1.98;;
13943;SDS011;7044;53.286;8.534;2022-11-15T15:12:36;2.60;;;1.48;;
13943;SDS011;7044;53.286;8.534;2022-11-15T15:15:03;1.98;;;1.45;;
13943;SDS011;7044;53.286;8.534;2022-11-15T15:17:30;1.90;;;1.48;;
13943;SDS011;7044;53.286;8.534;2022-11-15T15:19:57;3.38;;;2.00;;